sensor_id;sensor_type;location;lat;lon;timestamp;P1;durP1;ratioP1;P2;durP2;ratioP2
64065;SDS011;50318;54.760;9.408;2023-02-28T00:01:54;11.05;;;6.80;;
64065;SDS011;50318;54.760;9.408;2023-02-28T00:04:20;10.80;;;6.55;;
64065;SDS011;50318;54.760;9.408;2023-02-28T00:06:46;10.45;;;6.22;;
64065;SDS011;50318;54.760;9.408;2023-02-28T00:09:12;8.38;;;6.03;;
64065;SDS011;50318;54.760;9.408;2023-02-28T00:11:39;11.38;;;7.05;;
64065;SDS011;50318;54.760;9.408;2023-02-28T00:14:05;14.88;;;6.63;;
64065;SDS011;50318;54.760;9.408;2023-02-28T00:16:31;12.10;;;6.63;;
64065;SDS011;50318;54.760;9.408;2023-02-28T00:18:57;13.63;;;7.05;;
64065;SDS011;50318;54.760;9.408;2023-02-28T00:21:27;15.13;;;7.60;;
64065;SDS011;50318;54.760;9.408;2023-02-28T00:23:53;9.90;;;6.65;;
64065;SDS011;50318;54.760;9.408;2023-02-28T00:26:19;15.15;;;7.43;;
64065;SDS011;50318;54.760;9.408;2023-02-28T00:28:45;14.02;;;7.30;;
64065;SDS011;50318;54.760;9.408;2023-02-28T00:31:12;11.88;;;7.13;;
64065;SDS011;50318;54.760;9.408;2023-02-28T00:33:38;12.57;;;7.00;;
64065;SDS011;50318;54.760;9.408;2023-02-28T00:36:06;12.05;;;7.15;;
64065;SDS011;50318;54.760;9.408;2023-02-28T00:38:38;12.45;;;7.20;;
64065;SDS011;50318;54.760;9.408;2023-02-28T00:41:06;13.10;;;7.50;;
64065;SDS011;50318;54.760;9.408;2023-02-28T00:43:33;14.25;;;7.90;;
64065;SDS011;50318;54.760;9.408;2023-02-28T00:46:01;10.80;;;7.45;;
64065;SDS011;50318;54.760;9.408;2023-02-28T00:48:30;14.20;;;8.05;;
64065;SDS011;50318;54.760;9.408;2023-02-28T00:50:58;13.77;;;8.23;;
64065;SDS011;50318;54.760;9.408;2023-02-28T00:53:25;17.05;;;8.98;;
64065;SDS011;50318;54.760;9.408;2023-02-28T00:55:51;13.85;;;8.88;;
64065;SDS011;50318;54.760;9.408;2023-02-28T00:58:18;14.35;;;9.20;;
64065;SDS011;50318;54.760;9.408;2023-02-28T01:00:44;16.63;;;9.63;;
64065;SDS011;50318;54.760;9.408;2023-02-28T01:03:11;14.85;;;9.43;;
64065;SDS011;50318;54.760;9.408;2023-02-28T01:05:37;15.23;;;10.00;;
64065;SDS011;50318;54.760;9.408;2023-02-28T01:08:03;18.08;;;10.75;;
64065;SDS011;50318;54.760;9.408;2023-02-28T01:10:30;17.55;;;10.23;;
64065;SDS011;50318;54.760;9.408;2023-02-28T01:12:56;17.42;;;9.73;;
64065;SDS011;50318;54.760;9.408;2023-02-28T01:15:23;14.38;;;9.98;;
64065;SDS011;50318;54.760;9.408;2023-02-28T01:17:49;16.85;;;10.10;;
64065;SDS011;50318;54.760;9.408;2023-02-28T01:20:15;16.63;;;11.02;;
64065;SDS011;50318;54.760;9.408;2023-02-28T01:22:42;15.07;;;10.15;;
64065;SDS011;50318;54.760;9.408;2023-02-28T01:25:08;15.85;;;11.20;;
64065;SDS011;50318;54.760;9.408;2023-02-28T01:27:34;19.00;;;10.90;;
64065;SDS011;50318;54.760;9.408;2023-02-28T01:30:04;16.00;;;10.55;;
64065;SDS011;50318;54.760;9.408;2023-02-28T01:32:32;16.73;;;10.80;;
64065;SDS011;50318;54.760;9.408;2023-02-28T01:34:58;18.35;;;11.07;;
64065;SDS011;50318;54.760;9.408;2023-02-28T01:37:24;19.52;;;11.90;;
64065;SDS011;50318;54.760;9.408;2023-02-28T01:39:50;19.60;;;12.30;;
64065;SDS011;50318;54.760;9.408;2023-02-28T01:42:18;18.90;;;12.98;;
64065;SDS011;50318;54.760;9.408;2023-02-28T01:47:20;18.98;;;13.07;;
64065;SDS011;50318;54.760;9.408;2023-02-28T01:49:47;21.67;;;13.13;;
64065;SDS011;50318;54.760;9.408;2023-02-28T01:52:15;20.77;;;13.18;;
64065;SDS011;50318;54.760;9.408;2023-02-28T01:54:41;20.85;;;14.27;;
64065;SDS011;50318;54.760;9.408;2023-02-28T01:57:11;19.98;;;13.57;;
64065;SDS011;50318;54.760;9.408;2023-02-28T02:02:16;24.42;;;14.27;;
64065;SDS011;50318;54.760;9.408;2023-02-28T02:04:53;22.75;;;15.43;;
64065;SDS011;50318;54.760;9.408;2023-02-28T02:07:24;22.65;;;14.95;;
64065;SDS011;50318;54.760;9.408;2023-02-28T02:10:06;21.38;;;14.70;;
64065;SDS011;50318;54.760;9.408;2023-02-28T02:15:21;20.02;;;14.45;;
64065;SDS011;50318;54.760;9.408;2023-02-28T02:17:56;22.88;;;15.00;;
64065;SDS011;50318;54.760;9.408;2023-02-28T02:25:41;31.33;;;20.05;;
64065;SDS011;50318;54.760;9.408;2023-02-28T02:31:58;26.77;;;19.02;;
64065;SDS011;50318;54.760;9.408;2023-02-28T02:34:23;20.97;;;14.70;;
64065;SDS011;50318;54.760;9.408;2023-02-28T02:37:00;26.48;;;18.13;;
64065;SDS011;50318;54.760;9.408;2023-02-28T02:40:00;27.00;;;17.95;;
64065;SDS011;50318;54.760;9.408;2023-02-28T02:45:00;25.50;;;17.65;;
64065;SDS011;50318;54.760;9.408;2023-02-28T02:47:32;23.90;;;16.63;;
64065;SDS011;50318;54.760;9.408;2023-02-28T02:50:01;31.13;;;19.58;;
64065;SDS011;50318;54.760;9.408;2023-02-28T02:52:38;33.40;;;19.83;;
64065;SDS011;50318;54.760;9.408;2023-02-28T02:55:08;28.23;;;18.95;;
64065;SDS011;50318;54.760;9.408;2023-02-28T02:57:40;29.15;;;19.42;;
64065;SDS011;50318;54.760;9.408;2023-02-28T03:00:14;29.10;;;19.92;;
64065;SDS011;50318;54.760;9.408;2023-02-28T03:02:43;32.97;;;21.45;;
64065;SDS011;50318;54.760;9.408;2023-02-28T03:05:17;32.63;;;20.33;;
64065;SDS011;50318;54.760;9.408;2023-02-28T03:07:47;30.40;;;20.27;;
64065;SDS011;50318;54.760;9.408;2023-02-28T03:10:33;33.60;;;20.80;;
64065;SDS011;50318;54.760;9.408;2023-02-28T03:13:15;31.52;;;19.13;;
64065;SDS011;50318;54.760;9.408;2023-02-28T03:18:55;30.98;;;20.30;;
64065;SDS011;50318;54.760;9.408;2023-02-28T03:21:56;31.27;;;20.05;;
64065;SDS011;50318;54.760;9.408;2023-02-28T03:28:21;33.53;;;20.00;;
64065;SDS011;50318;54.760;9.408;2023-02-28T03:34:54;30.67;;;20.73;;
64065;SDS011;50318;54.760;9.408;2023-02-28T03:37:32;31.77;;;20.50;;
64065;SDS011;50318;54.760;9.408;2023-02-28T03:40:13;29.90;;;19.83;;
64065;SDS011;50318;54.760;9.408;2023-02-28T03:42:44;32.25;;;21.02;;
64065;SDS011;50318;54.760;9.408;2023-02-28T03:45:16;30.50;;;19.17;;
64065;SDS011;50318;54.760;9.408;2023-02-28T03:47:47;28.42;;;19.35;;
64065;SDS011;50318;54.760;9.408;2023-02-28T03:50:41;27.70;;;18.20;;
64065;SDS011;50318;54.760;9.408;2023-02-28T03:53:18;30.05;;;19.65;;
64065;SDS011;50318;54.760;9.408;2023-02-28T03:55:55;31.63;;;20.70;;
64065;SDS011;50318;54.760;9.408;2023-02-28T03:58:33;29.27;;;20.27;;
64065;SDS011;50318;54.760;9.408;2023-02-28T04:01:09;31.17;;;21.25;;
64065;SDS011;50318;54.760;9.408;2023-02-28T04:03:50;34.22;;;21.65;;
64065;SDS011;50318;54.760;9.408;2023-02-28T04:06:18;32.80;;;22.27;;
64065;SDS011;50318;54.760;9.408;2023-02-28T04:08:47;32.45;;;22.55;;
64065;SDS011;50318;54.760;9.408;2023-02-28T04:11:21;34.63;;;22.48;;
64065;SDS011;50318;54.760;9.408;2023-02-28T04:14:02;34.65;;;22.98;;
64065;SDS011;50318;54.760;9.408;2023-02-28T04:16:30;34.85;;;24.55;;
64065;SDS011;50318;54.760;9.408;2023-02-28T04:18:57;31.00;;;21.08;;
64065;SDS011;50318;54.760;9.408;2023-02-28T04:21:23;34.65;;;21.52;;
64065;SDS011;50318;54.760;9.408;2023-02-28T04:23:49;28.67;;;19.40;;
64065;SDS011;50318;54.760;9.408;2023-02-28T04:26:15;26.27;;;18.85;;
64065;SDS011;50318;54.760;9.408;2023-02-28T04:28:42;31.48;;;20.15;;
64065;SDS011;50318;54.760;9.408;2023-02-28T04:31:08;31.05;;;20.92;;
64065;SDS011;50318;54.760;9.408;2023-02-28T04:33:34;31.83;;;20.60;;
64065;SDS011;50318;54.760;9.408;2023-02-28T04:36:01;35.70;;;21.08;;
64065;SDS011;50318;54.760;9.408;2023-02-28T04:38:29;31.02;;;20.48;;
64065;SDS011;50318;54.760;9.408;2023-02-28T04:40:58;35.67;;;22.20;;
64065;SDS011;50318;54.760;9.408;2023-02-28T04:43:28;33.88;;;21.60;;
64065;SDS011;50318;54.760;9.408;2023-02-28T04:45:57;35.50;;;21.90;;
64065;SDS011;50318;54.760;9.408;2023-02-28T04:48:24;35.17;;;21.75;;
64065;SDS011;50318;54.760;9.408;2023-02-28T04:50:52;36.17;;;22.92;;
64065;SDS011;50318;54.760;9.408;2023-02-28T04:53:19;34.55;;;21.77;;
64065;SDS011;50318;54.760;9.408;2023-02-28T04:55:45;37.85;;;23.25;;
64065;SDS011;50318;54.760;9.408;2023-02-28T04:58:12;30.67;;;21.38;;
64065;SDS011;50318;54.760;9.408;2023-02-28T05:00:39;75.15;;;47.28;;
64065;SDS011;50318;54.760;9.408;2023-02-28T05:03:05;42.20;;;27.27;;
64065;SDS011;50318;54.760;9.408;2023-02-28T05:05:31;37.88;;;25.05;;
64065;SDS011;50318;54.760;9.408;2023-02-28T05:07:57;35.78;;;20.98;;
64065;SDS011;50318;54.760;9.408;2023-02-28T05:10:24;58.83;;;35.70;;
64065;SDS011;50318;54.760;9.408;2023-02-28T05:12:50;38.92;;;25.95;;
64065;SDS011;50318;54.760;9.408;2023-02-28T05:15:17;37.35;;;23.45;;
64065;SDS011;50318;54.760;9.408;2023-02-28T05:17:43;35.78;;;21.67;;
64065;SDS011;50318;54.760;9.408;2023-02-28T05:20:10;43.80;;;26.02;;
64065;SDS011;50318;54.760;9.408;2023-02-28T05:22:37;39.38;;;25.45;;
64065;SDS011;50318;54.760;9.408;2023-02-28T05:25:04;41.72;;;26.00;;
64065;SDS011;50318;54.760;9.408;2023-02-28T05:27:30;46.72;;;28.38;;
64065;SDS011;50318;54.760;9.408;2023-02-28T05:29:57;44.95;;;28.13;;
64065;SDS011;50318;54.760;9.408;2023-02-28T05:32:23;39.88;;;26.90;;
64065;SDS011;50318;54.760;9.408;2023-02-28T05:34:49;46.78;;;27.83;;
64065;SDS011;50318;54.760;9.408;2023-02-28T05:37:15;42.05;;;26.58;;
64065;SDS011;50318;54.760;9.408;2023-02-28T05:39:42;40.78;;;26.40;;
64065;SDS011;50318;54.760;9.408;2023-02-28T05:42:08;39.42;;;25.27;;
64065;SDS011;50318;54.760;9.408;2023-02-28T05:44:35;38.67;;;25.42;;
64065;SDS011;50318;54.760;9.408;2023-02-28T05:47:02;44.55;;;26.55;;
64065;SDS011;50318;54.760;9.408;2023-02-28T05:49:28;40.20;;;25.60;;
64065;SDS011;50318;54.760;9.408;2023-02-28T05:51:54;37.97;;;24.48;;
64065;SDS011;50318;54.760;9.408;2023-02-28T05:54:20;38.33;;;23.25;;
64065;SDS011;50318;54.760;9.408;2023-02-28T05:56:47;40.33;;;24.40;;
64065;SDS011;50318;54.760;9.408;2023-02-28T05:59:13;38.55;;;24.85;;
64065;SDS011;50318;54.760;9.408;2023-02-28T06:04:08;42.08;;;25.77;;
64065;SDS011;50318;54.760;9.408;2023-02-28T06:06:36;40.78;;;27.02;;
64065;SDS011;50318;54.760;9.408;2023-02-28T06:09:03;36.78;;;25.13;;
64065;SDS011;50318;54.760;9.408;2023-02-28T06:11:30;38.88;;;24.98;;
64065;SDS011;50318;54.760;9.408;2023-02-28T06:13:57;36.95;;;25.13;;
64065;SDS011;50318;54.760;9.408;2023-02-28T06:16:25;40.78;;;25.17;;
64065;SDS011;50318;54.760;9.408;2023-02-28T06:18:52;38.22;;;25.67;;
64065;SDS011;50318;54.760;9.408;2023-02-28T06:21:18;42.40;;;26.42;;
64065;SDS011;50318;54.760;9.408;2023-02-28T06:23:45;38.47;;;25.35;;
64065;SDS011;50318;54.760;9.408;2023-02-28T06:26:11;39.97;;;24.88;;
64065;SDS011;50318;54.760;9.408;2023-02-28T06:28:37;41.42;;;25.38;;
64065;SDS011;50318;54.760;9.408;2023-02-28T06:31:10;45.95;;;28.45;;
64065;SDS011;50318;54.760;9.408;2023-02-28T06:33:39;41.45;;;24.20;;
64065;SDS011;50318;54.760;9.408;2023-02-28T06:36:06;41.90;;;26.73;;
64065;SDS011;50318;54.760;9.408;2023-02-28T06:38:33;42.75;;;25.83;;
64065;SDS011;50318;54.760;9.408;2023-02-28T06:40:59;45.17;;;29.40;;
64065;SDS011;50318;54.760;9.408;2023-02-28T06:43:28;47.08;;;29.52;;
64065;SDS011;50318;54.760;9.408;2023-02-28T06:45:56;45.60;;;29.13;;
64065;SDS011;50318;54.760;9.408;2023-02-28T06:48:26;53.30;;;29.35;;
64065;SDS011;50318;54.760;9.408;2023-02-28T06:51:03;48.72;;;30.77;;
64065;SDS011;50318;54.760;9.408;2023-02-28T06:53:31;43.47;;;26.98;;
64065;SDS011;50318;54.760;9.408;2023-02-28T06:55:57;42.08;;;26.13;;
64065;SDS011;50318;54.760;9.408;2023-02-28T06:58:24;44.00;;;27.15;;
64065;SDS011;50318;54.760;9.408;2023-02-28T07:00:51;42.70;;;27.90;;
64065;SDS011;50318;54.760;9.408;2023-02-28T07:03:18;46.10;;;28.13;;
64065;SDS011;50318;54.760;9.408;2023-02-28T07:05:45;44.83;;;27.45;;
64065;SDS011;50318;54.760;9.408;2023-02-28T07:08:11;50.40;;;28.90;;
64065;SDS011;50318;54.760;9.408;2023-02-28T07:10:38;45.35;;;28.35;;
64065;SDS011;50318;54.760;9.408;2023-02-28T07:13:04;51.67;;;29.90;;
64065;SDS011;50318;54.760;9.408;2023-02-28T07:15:32;48.95;;;30.10;;
64065;SDS011;50318;54.760;9.408;2023-02-28T07:18:01;45.55;;;27.90;;
64065;SDS011;50318;54.760;9.408;2023-02-28T07:20:27;44.05;;;30.23;;
64065;SDS011;50318;54.760;9.408;2023-02-28T07:22:53;47.83;;;29.83;;
64065;SDS011;50318;54.760;9.408;2023-02-28T07:25:20;43.83;;;29.08;;
64065;SDS011;50318;54.760;9.408;2023-02-28T07:27:50;48.30;;;32.05;;
64065;SDS011;50318;54.760;9.408;2023-02-28T07:30:17;47.00;;;30.38;;
64065;SDS011;50318;54.760;9.408;2023-02-28T07:32:43;46.45;;;29.05;;
64065;SDS011;50318;54.760;9.408;2023-02-28T07:35:09;46.42;;;30.27;;
64065;SDS011;50318;54.760;9.408;2023-02-28T07:37:36;47.50;;;29.48;;
64065;SDS011;50318;54.760;9.408;2023-02-28T07:40:09;44.63;;;29.00;;
64065;SDS011;50318;54.760;9.408;2023-02-28T07:42:36;47.28;;;30.50;;
64065;SDS011;50318;54.760;9.408;2023-02-28T07:45:04;44.88;;;29.90;;
64065;SDS011;50318;54.760;9.408;2023-02-28T07:47:31;44.85;;;29.30;;
64065;SDS011;50318;54.760;9.408;2023-02-28T07:49:58;46.83;;;30.42;;
64065;SDS011;50318;54.760;9.408;2023-02-28T07:52:24;52.45;;;30.92;;
64065;SDS011;50318;54.760;9.408;2023-02-28T07:54:50;47.17;;;30.40;;
64065;SDS011;50318;54.760;9.408;2023-02-28T07:57:17;43.85;;;30.40;;
64065;SDS011;50318;54.760;9.408;2023-02-28T07:59:43;48.67;;;31.80;;
64065;SDS011;50318;54.760;9.408;2023-02-28T08:02:16;50.35;;;33.15;;
64065;SDS011;50318;54.760;9.408;2023-02-28T08:04:44;51.20;;;31.65;;
64065;SDS011;50318;54.760;9.408;2023-02-28T08:07:13;45.70;;;31.13;;
64065;SDS011;50318;54.760;9.408;2023-02-28T08:09:40;42.65;;;30.58;;
64065;SDS011;50318;54.760;9.408;2023-02-28T08:12:07;44.63;;;30.38;;
64065;SDS011;50318;54.760;9.408;2023-02-28T08:14:34;42.78;;;30.15;;
64065;SDS011;50318;54.760;9.408;2023-02-28T08:17:00;40.92;;;28.77;;
64065;SDS011;50318;54.760;9.408;2023-02-28T08:19:27;42.80;;;28.98;;
64065;SDS011;50318;54.760;9.408;2023-02-28T08:21:54;43.58;;;28.77;;
64065;SDS011;50318;54.760;9.408;2023-02-28T08:24:20;43.53;;;28.60;;
64065;SDS011;50318;54.760;9.408;2023-02-28T08:26:46;41.33;;;27.80;;
64065;SDS011;50318;54.760;9.408;2023-02-28T08:29:13;39.58;;;25.13;;
64065;SDS011;50318;54.760;9.408;2023-02-28T08:31:39;38.25;;;23.75;;
64065;SDS011;50318;54.760;9.408;2023-02-28T08:34:07;38.38;;;23.92;;
64065;SDS011;50318;54.760;9.408;2023-02-28T08:36:34;33.40;;;22.73;;
64065;SDS011;50318;54.760;9.408;2023-02-28T08:39:01;37.72;;;21.60;;
64065;SDS011;50318;54.760;9.408;2023-02-28T08:41:27;36.72;;;21.25;;
64065;SDS011;50318;54.760;9.408;2023-02-28T08:43:53;30.25;;;20.13;;
64065;SDS011;50318;54.760;9.408;2023-02-28T08:46:20;30.20;;;18.60;;
64065;SDS011;50318;54.760;9.408;2023-02-28T08:48:46;32.80;;;18.50;;
64065;SDS011;50318;54.760;9.408;2023-02-28T08:51:14;30.40;;;18.00;;
64065;SDS011;50318;54.760;9.408;2023-02-28T08:53:42;27.67;;;17.23;;
64065;SDS011;50318;54.760;9.408;2023-02-28T08:56:09;25.25;;;16.35;;
64065;SDS011;50318;54.760;9.408;2023-02-28T08:58:37;23.65;;;15.45;;
64065;SDS011;50318;54.760;9.408;2023-02-28T09:01:08;26.52;;;15.48;;
64065;SDS011;50318;54.760;9.408;2023-02-28T09:03:36;23.23;;;14.20;;
64065;SDS011;50318;54.760;9.408;2023-02-28T09:06:02;25.65;;;13.90;;
64065;SDS011;50318;54.760;9.408;2023-02-28T09:08:29;25.63;;;14.35;;
64065;SDS011;50318;54.760;9.408;2023-02-28T09:10:57;22.42;;;13.50;;
64065;SDS011;50318;54.760;9.408;2023-02-28T09:13:24;21.45;;;12.63;;
64065;SDS011;50318;54.760;9.408;2023-02-28T09:15:52;24.65;;;13.57;;
64065;SDS011;50318;54.760;9.408;2023-02-28T09:18:18;25.30;;;15.23;;
64065;SDS011;50318;54.760;9.408;2023-02-28T09:20:45;25.45;;;15.00;;
64065;SDS011;50318;54.760;9.408;2023-02-28T09:23:12;22.25;;;13.68;;
64065;SDS011;50318;54.760;9.408;2023-02-28T09:25:44;25.75;;;15.30;;
64065;SDS011;50318;54.760;9.408;2023-02-28T09:28:20;22.63;;;12.85;;
64065;SDS011;50318;54.760;9.408;2023-02-28T09:30:49;21.75;;;11.80;;
64065;SDS011;50318;54.760;9.408;2023-02-28T09:33:20;25.25;;;11.93;;
64065;SDS011;50318;54.760;9.408;2023-02-28T09:35:48;18.25;;;10.18;;
64065;SDS011;50318;54.760;9.408;2023-02-28T09:38:15;19.90;;;11.25;;
64065;SDS011;50318;54.760;9.408;2023-02-28T09:40:50;19.88;;;10.57;;
64065;SDS011;50318;54.760;9.408;2023-02-28T09:43:20;22.00;;;10.18;;
64065;SDS011;50318;54.760;9.408;2023-02-28T09:45:51;20.60;;;10.57;;
64065;SDS011;50318;54.760;9.408;2023-02-28T09:50:51;20.52;;;12.30;;
64065;SDS011;50318;54.760;9.408;2023-02-28T09:53:31;24.02;;;13.40;;
64065;SDS011;50318;54.760;9.408;2023-02-28T09:56:21;23.00;;;12.20;;
64065;SDS011;50318;54.760;9.408;2023-02-28T09:59:04;25.38;;;13.73;;
64065;SDS011;50318;54.760;9.408;2023-02-28T10:01:53;23.73;;;13.88;;
64065;SDS011;50318;54.760;9.408;2023-02-28T10:07:22;26.00;;;14.27;;
64065;SDS011;50318;54.760;9.408;2023-02-28T10:10:29;23.63;;;13.90;;
64065;SDS011;50318;54.760;9.408;2023-02-28T10:12:54;25.73;;;14.32;;
64065;SDS011;50318;54.760;9.408;2023-02-28T10:15:24;24.05;;;14.15;;
64065;SDS011;50318;54.760;9.408;2023-02-28T10:17:54;21.85;;;13.93;;
64065;SDS011;50318;54.760;9.408;2023-02-28T10:20:24;22.23;;;12.68;;
64065;SDS011;50318;54.760;9.408;2023-02-28T10:22:52;21.83;;;12.50;;
64065;SDS011;50318;54.760;9.408;2023-02-28T10:25:37;22.00;;;11.70;;
64065;SDS011;50318;54.760;9.408;2023-02-28T10:30:34;19.48;;;12.35;;
64065;SDS011;50318;54.760;9.408;2023-02-28T10:33:03;23.48;;;12.10;;
64065;SDS011;50318;54.760;9.408;2023-02-28T10:35:29;20.52;;;11.85;;
64065;SDS011;50318;54.760;9.408;2023-02-28T10:37:57;19.40;;;10.73;;
64065;SDS011;50318;54.760;9.408;2023-02-28T10:40:27;19.42;;;11.30;;
64065;SDS011;50318;54.760;9.408;2023-02-28T10:43:01;23.85;;;12.43;;
64065;SDS011;50318;54.760;9.408;2023-02-28T10:45:31;18.30;;;10.48;;
64065;SDS011;50318;54.760;9.408;2023-02-28T10:48:01;24.55;;;12.48;;
64065;SDS011;50318;54.760;9.408;2023-02-28T10:55:59;27.05;;;14.30;;
64065;SDS011;50318;54.760;9.408;2023-02-28T11:01:23;20.17;;;11.45;;
64065;SDS011;50318;54.760;9.408;2023-02-28T11:03:50;20.10;;;11.38;;
64065;SDS011;50318;54.760;9.408;2023-02-28T11:06:25;25.15;;;13.45;;
64065;SDS011;50318;54.760;9.408;2023-02-28T11:08:55;20.50;;;12.77;;
64065;SDS011;50318;54.760;9.408;2023-02-28T11:11:25;22.95;;;12.95;;
64065;SDS011;50318;54.760;9.408;2023-02-28T11:14:03;23.90;;;12.88;;
64065;SDS011;50318;54.760;9.408;2023-02-28T11:16:32;19.50;;;11.93;;
64065;SDS011;50318;54.760;9.408;2023-02-28T11:19:00;19.02;;;11.05;;
64065;SDS011;50318;54.760;9.408;2023-02-28T11:21:32;19.52;;;11.55;;
64065;SDS011;50318;54.760;9.408;2023-02-28T11:24:06;17.15;;;9.00;;
64065;SDS011;50318;54.760;9.408;2023-02-28T11:26:45;23.08;;;12.73;;
64065;SDS011;50318;54.760;9.408;2023-02-28T11:29:29;19.25;;;10.80;;
64065;SDS011;50318;54.760;9.408;2023-02-28T11:34:33;16.10;;;10.00;;
64065;SDS011;50318;54.760;9.408;2023-02-28T11:37:01;16.88;;;10.27;;
64065;SDS011;50318;54.760;9.408;2023-02-28T11:39:28;19.88;;;12.10;;
64065;SDS011;50318;54.760;9.408;2023-02-28T11:47:58;22.33;;;12.30;;
64065;SDS011;50318;54.760;9.408;2023-02-28T11:53:10;20.48;;;11.95;;
64065;SDS011;50318;54.760;9.408;2023-02-28T11:55:47;21.20;;;12.63;;
64065;SDS011;50318;54.760;9.408;2023-02-28T12:03:40;20.52;;;11.20;;
64065;SDS011;50318;54.760;9.408;2023-02-28T12:09:13;20.67;;;11.52;;
64065;SDS011;50318;54.760;9.408;2023-02-28T12:23:43;18.50;;;10.88;;
64065;SDS011;50318;54.760;9.408;2023-02-28T12:29:12;16.65;;;10.30;;
64065;SDS011;50318;54.760;9.408;2023-02-28T12:31:48;15.88;;;9.25;;
64065;SDS011;50318;54.760;9.408;2023-02-28T12:34:19;17.70;;;10.50;;
64065;SDS011;50318;54.760;9.408;2023-02-28T12:36:51;18.20;;;10.00;;
64065;SDS011;50318;54.760;9.408;2023-02-28T12:39:31;15.02;;;9.50;;
64065;SDS011;50318;54.760;9.408;2023-02-28T12:42:19;19.90;;;9.40;;
64065;SDS011;50318;54.760;9.408;2023-02-28T12:45:15;13.80;;;8.57;;
64065;SDS011;50318;54.760;9.408;2023-02-28T12:47:46;16.25;;;9.25;;
64065;SDS011;50318;54.760;9.408;2023-02-28T12:50:18;17.45;;;9.77;;
64065;SDS011;50318;54.760;9.408;2023-02-28T12:52:49;17.02;;;9.63;;
64065;SDS011;50318;54.760;9.408;2023-02-28T12:55:31;16.10;;;9.77;;
64065;SDS011;50318;54.760;9.408;2023-02-28T13:00:38;18.05;;;10.73;;
64065;SDS011;50318;54.760;9.408;2023-02-28T13:09:25;19.65;;;12.00;;
64065;SDS011;50318;54.760;9.408;2023-02-28T13:11:55;17.10;;;11.15;;
64065;SDS011;50318;54.760;9.408;2023-02-28T13:19:36;22.58;;;12.48;;
64065;SDS011;50318;54.760;9.408;2023-02-28T13:22:05;18.95;;;11.27;;
64065;SDS011;50318;54.760;9.408;2023-02-28T13:29:41;19.95;;;11.23;;
64065;SDS011;50318;54.760;9.408;2023-02-28T13:34:47;21.50;;;12.32;;
64065;SDS011;50318;54.760;9.408;2023-02-28T13:42:52;19.58;;;11.68;;
64065;SDS011;50318;54.760;9.408;2023-02-28T13:45:25;21.13;;;12.35;;
64065;SDS011;50318;54.760;9.408;2023-02-28T13:50:41;18.33;;;11.27;;
64065;SDS011;50318;54.760;9.408;2023-02-28T13:55:43;18.67;;;11.48;;
64065;SDS011;50318;54.760;9.408;2023-02-28T13:58:53;20.08;;;12.40;;
64065;SDS011;50318;54.760;9.408;2023-02-28T14:07:08;20.88;;;11.68;;
64065;SDS011;50318;54.760;9.408;2023-02-28T14:12:51;17.70;;;11.30;;
64065;SDS011;50318;54.760;9.408;2023-02-28T14:15:59;18.90;;;11.83;;
64065;SDS011;50318;54.760;9.408;2023-02-28T14:20:48;16.63;;;10.70;;
64065;SDS011;50318;54.760;9.408;2023-02-28T14:29:42;21.17;;;12.55;;
64065;SDS011;50318;54.760;9.408;2023-02-28T14:37:27;17.02;;;11.23;;
64065;SDS011;50318;54.760;9.408;2023-02-28T14:40:02;21.15;;;11.70;;
64065;SDS011;50318;54.760;9.408;2023-02-28T14:42:37;19.15;;;11.70;;
64065;SDS011;50318;54.760;9.408;2023-02-28T14:45:06;21.05;;;11.45;;
64065;SDS011;50318;54.760;9.408;2023-02-28T14:47:51;18.48;;;11.40;;
64065;SDS011;50318;54.760;9.408;2023-02-28T14:50:21;17.88;;;11.10;;
64065;SDS011;50318;54.760;9.408;2023-02-28T14:52:53;17.25;;;11.68;;
64065;SDS011;50318;54.760;9.408;2023-02-28T14:55:23;20.70;;;11.35;;
64065;SDS011;50318;54.760;9.408;2023-02-28T14:57:59;18.20;;;11.43;;
64065;SDS011;50318;54.760;9.408;2023-02-28T15:00:31;20.02;;;11.15;;
64065;SDS011;50318;54.760;9.408;2023-02-28T15:03:00;21.33;;;12.13;;
64065;SDS011;50318;54.760;9.408;2023-02-28T15:05:34;20.95;;;12.23;;
64065;SDS011;50318;54.760;9.408;2023-02-28T15:08:18;21.43;;;12.63;;
64065;SDS011;50318;54.760;9.408;2023-02-28T15:10:51;20.58;;;11.82;;
64065;SDS011;50318;54.760;9.408;2023-02-28T15:13:21;23.23;;;12.38;;
64065;SDS011;50318;54.760;9.408;2023-02-28T15:15:56;21.38;;;12.30;;
64065;SDS011;50318;54.760;9.408;2023-02-28T15:18:46;22.20;;;12.55;;
64065;SDS011;50318;54.760;9.408;2023-02-28T15:21:24;17.63;;;12.38;;
64065;SDS011;50318;54.760;9.408;2023-02-28T15:26:39;18.98;;;12.32;;
64065;SDS011;50318;54.760;9.408;2023-02-28T15:29:21;23.35;;;12.93;;
64065;SDS011;50318;54.760;9.408;2023-02-28T15:31:50;22.65;;;13.27;;
64065;SDS011;50318;54.760;9.408;2023-02-28T15:34:25;23.20;;;12.40;;
64065;SDS011;50318;54.760;9.408;2023-02-28T15:36:52;19.10;;;11.25;;
64065;SDS011;50318;54.760;9.408;2023-02-28T15:39:19;25.42;;;12.32;;
64065;SDS011;50318;54.760;9.408;2023-02-28T15:41:51;21.55;;;11.75;;
64065;SDS011;50318;54.760;9.408;2023-02-28T15:46:54;22.08;;;12.45;;
64065;SDS011;50318;54.760;9.408;2023-02-28T15:49:24;23.67;;;13.02;;
64065;SDS011;50318;54.760;9.408;2023-02-28T15:51:51;21.33;;;12.65;;
64065;SDS011;50318;54.760;9.408;2023-02-28T15:54:21;20.83;;;13.70;;
64065;SDS011;50318;54.760;9.408;2023-02-28T15:56:56;18.02;;;12.07;;
64065;SDS011;50318;54.760;9.408;2023-02-28T15:59:30;22.67;;;14.80;;
64065;SDS011;50318;54.760;9.408;2023-02-28T16:07:32;24.20;;;13.82;;
64065;SDS011;50318;54.760;9.408;2023-02-28T16:10:01;21.02;;;13.73;;
64065;SDS011;50318;54.760;9.408;2023-02-28T16:12:29;22.48;;;14.23;;
64065;SDS011;50318;54.760;9.408;2023-02-28T16:14:59;21.63;;;13.75;;
64065;SDS011;50318;54.760;9.408;2023-02-28T16:17:29;29.25;;;14.90;;
64065;SDS011;50318;54.760;9.408;2023-02-28T16:19:59;25.10;;;14.07;;
64065;SDS011;50318;54.760;9.408;2023-02-28T16:22:27;26.13;;;14.70;;
64065;SDS011;50318;54.760;9.408;2023-02-28T16:24:53;23.40;;;14.30;;
64065;SDS011;50318;54.760;9.408;2023-02-28T16:27:30;27.48;;;14.80;;
64065;SDS011;50318;54.760;9.408;2023-02-28T16:29:58;25.27;;;15.05;;
64065;SDS011;50318;54.760;9.408;2023-02-28T16:32:25;25.58;;;15.32;;
64065;SDS011;50318;54.760;9.408;2023-02-28T16:34:52;28.17;;;15.82;;
64065;SDS011;50318;54.760;9.408;2023-02-28T16:37:21;26.30;;;15.85;;
64065;SDS011;50318;54.760;9.408;2023-02-28T16:39:47;30.50;;;16.05;;
64065;SDS011;50318;54.760;9.408;2023-02-28T16:42:23;22.83;;;14.90;;
64065;SDS011;50318;54.760;9.408;2023-02-28T16:44:52;25.15;;;16.02;;
64065;SDS011;50318;54.760;9.408;2023-02-28T16:47:19;26.55;;;16.50;;
64065;SDS011;50318;54.760;9.408;2023-02-28T16:49:45;25.15;;;16.55;;
64065;SDS011;50318;54.760;9.408;2023-02-28T16:52:11;30.88;;;18.00;;
64065;SDS011;50318;54.760;9.408;2023-02-28T16:54:38;30.50;;;17.88;;
64065;SDS011;50318;54.760;9.408;2023-02-28T16:57:05;33.47;;;17.95;;
64065;SDS011;50318;54.760;9.408;2023-02-28T16:59:41;29.52;;;18.80;;
64065;SDS011;50318;54.760;9.408;2023-02-28T17:02:16;30.98;;;18.50;;
64065;SDS011;50318;54.760;9.408;2023-02-28T17:04:44;29.70;;;18.75;;
64065;SDS011;50318;54.760;9.408;2023-02-28T17:07:14;30.77;;;19.58;;
64065;SDS011;50318;54.760;9.408;2023-02-28T17:09:41;29.52;;;20.20;;
64065;SDS011;50318;54.760;9.408;2023-02-28T17:12:08;34.72;;;21.70;;